Saint Petersburg, Florida
Current Conditions -  °F | °C
As of 1:53 AM on Monday 22 Dec 2014 (Local Time) from KSPG Reporting Station
Broken Clouds Broken Clouds  
Wind Chill: 19°   Ceiling: 4700
Heat Index: 19°   Visibility: 10mi
Dew Point: 18°   Wind: 8mph
Humidity: 93%   Direction: 190°S
Pressure: 29.99"   Gusts: NA
Location:  27.77°N, 82.63°W
Report Text: KSPG 220653Z AUTO 19007KT 10SM FEW024 SCT031 BKN047 19/18 A2999 RMK AO2 SLP154 T01940183
Loading
Personal Weather Stations






























Interactive Weather Map New forecast layout! Learn more

10-Day Weather Forecast

Advertisements
Track Severe Weather on mobile